Time;durP1;ratioP1;P1;durP2;ratioP2;P2;SDS_P1;SDS_P2;PMS_P1;PMS_P2;Temp;Humidity;BMP_temperature;BMP_pressure;BME280_temperature;BME280_humidity;BME280_pressure;Samples;Min_cycle;Max_cycle;Signal;HPM_P1;HPM_P2
2022/05/22 00:02:34;;;;;;;2.83;1.27;;;;;;;17.88;50.10;100442.81;18371264;32;20108;-64
2022/05/22 00:12:38;;;;;;;1.85;1.20;;;;;;;16.59;53.88;100428.91;18370647;32;20176;-64
2022/05/22 00:22:43;;;;;;;2.60;1.20;;;;;;;17.79;47.72;100417.56;18370372;32;20469;-64
2022/05/22 00:32:46;;;;;;;2.62;1.33;;;;;;;18.30;45.76;100417.66;18370053;32;20112;-64
2022/05/22 00:42:50;;;;;;;2.37;1.27;;;;;;;18.61;44.61;100402.53;18369460;32;20163;-64
2022/05/22 00:52:56;;;;;;;1.90;1.23;;;;;;;18.37;44.90;100407.78;18369090;32;20123;-64
2022/05/22 01:03:28;;;;;;;3.30;1.48;;;;;;;18.64;44.31;100413.87;18369331;32;20101;-64
2022/05/22 01:13:33;;;;;;;1.73;1.00;;;;;;;18.48;44.96;100415.31;18368959;32;20097;-64
2022/05/22 01:23:38;;;;;;;2.03;1.30;;;;;;;18.37;45.13;100416.56;18370030;32;20115;-64
2022/05/22 01:33:42;;;;;;;2.33;1.30;;;;;;;18.04;46.25;100411.50;18368164;32;20108;-64
2022/05/22 01:43:46;;;;;;;3.00;1.20;;;;;;;17.74;47.10;100406.28;18367358;32;20162;-64
2022/05/22 01:53:50;;;;;;;1.60;1.30;;;;;;;17.90;46.23;100398.72;18367525;32;20141;-64
2022/05/22 02:03:55;;;;;;;1.98;1.10;;;;;;;17.54;47.39;100407.75;18365777;32;20378;-63
2022/05/22 02:13:58;;;;;;;1.98;1.33;;;;;;;17.37;46.98;100407.44;18366491;32;20373;-63
2022/05/22 02:24:04;;;;;;;2.17;1.08;;;;;;;16.91;46.70;100411.34;18365875;32;20123;-64
2022/05/22 02:34:07;;;;;;;0.75;0.70;;;;;;;17.36;44.19;100409.19;18365656;32;20126;-64
2022/05/22 02:44:12;;;;;;;2.58;1.23;;;;;;;17.79;42.69;100414.06;18364969;32;20098;-64
2022/05/22 02:54:15;;;;;;;3.47;1.10;;;;;;;17.98;42.59;100417.84;18364094;32;20508;-64
2022/05/22 03:04:20;;;;;;;2.87;1.45;;;;;;;17.75;43.94;100413.28;18363755;32;20235;-64
2022/05/22 03:14:23;;;;;;;3.90;1.15;;;;;;;17.75;45.16;100426.50;18364154;32;20128;-64
2022/05/22 03:24:28;;;;;;;1.45;0.95;;;;;;;17.88;44.52;100414.62;18371437;32;20097;-64
2022/05/22 03:34:31;;;;;;;1.92;1.15;;;;;;;17.18;47.10;100413.28;18357371;32;20116;-64
2022/05/22 03:44:37;;;;;;;2.47;1.10;;;;;;;17.16;49.24;100405.38;18371389;32;20158;-64
2022/05/22 03:54:40;;;;;;;1.10;1.00;;;;;;;17.02;51.05;100411.06;18371400;32;20112;-64
2022/05/22 04:04:44;;;;;;;1.60;1.20;;;;;;;17.27;51.70;100423.53;18370764;32;20198;-64
2022/05/22 04:14:48;;;;;;;2.92;1.20;;;;;;;17.72;51.87;100430.09;18370434;32;20097;-64
2022/05/22 04:35:13;;;;;;;2.58;1.17;;;;;;;19.59;42.17;100428.03;18369344;32;20086;-64
2022/05/22 04:45:18;;;;;;;1.52;1.00;;;;;;;19.53;42.91;100422.03;18369640;32;20108;-64
2022/05/22 04:55:21;;;;;;;2.25;0.98;;;;;;;19.49;43.73;100424.88;18369936;32;20115;-64
2022/05/22 05:05:26;;;;;;;1.87;0.90;;;;;;;19.68;43.36;100427.66;18368267;32;20092;-64
2022/05/22 05:15:29;;;;;;;2.42;0.98;;;;;;;19.68;43.08;100425.00;18369763;32;20131;-64
2022/05/22 05:25:34;;;;;;;3.08;1.10;;;;;;;18.89;45.70;100415.63;18368568;32;20176;-64
2022/05/22 05:35:38;;;;;;;2.25;1.20;;;;;;;19.06;46.67;100424.72;18368168;32;20111;-64
2022/05/22 05:45:43;;;;;;;1.65;1.00;;;;;;;19.22;45.03;100433.81;18367861;32;20101;-64
2022/05/22 05:55:48;;;;;;;1.92;1.02;;;;;;;20.29;40.24;100430.53;18353241;32;20098;-64
2022/05/22 06:06:14;;;;;;;2.35;1.08;;;;;;;20.85;40.87;100433.47;18367736;32;20116;-64
2022/05/22 06:16:17;;;;;;;2.47;1.00;;;;;;;20.96;41.07;100428.53;18366501;32;20092;-64
2022/05/22 06:26:22;;;;;;;1.27;0.60;;;;;;;21.44;40.68;100426.34;18365971;32;20105;-64
2022/05/22 06:36:25;;;;;;;1.30;0.77;;;;;;;21.49;36.32;100415.50;18366188;32;20129;-64
2022/05/22 06:46:33;;;;;;;1.35;0.85;;;;;;;21.63;35.06;100422.81;18364488;32;20110;-64
2022/05/22 06:56:36;;;;;;;2.50;0.75;;;;;;;22.37;36.02;100420.94;18370258;32;20465;-64
2022/05/22 07:06:41;;;;;;;0.93;0.75;;;;;;;22.47;33.15;100421.31;18372364;32;20101;-64
2022/05/22 07:16:44;;;;;;;2.10;0.88;;;;;;;23.41;31.78;100406.63;18372317;32;20101;-65
2022/05/22 07:26:49;;;;;;;1.25;0.60;;;;;;;25.40;30.80;100397.47;18372014;32;20143;-65
2022/05/22 07:36:56;;;;;;;0.45;0.45;;;;;;;28.15;23.18;100366.72;18357434;32;20387;-65
2022/05/22 07:47:00;;;;;;;2.97;0.80;;;;;;;26.66;26.17;100386.47;18371262;32;20166;-64
2022/05/22 07:57:04;;;;;;;4.35;0.80;;;;;;;24.29;29.46;100379.37;18370850;32;20350;-64
2022/05/22 08:07:09;;;;;;;1.25;0.60;;;;;;;23.83;30.57;100364.28;18369826;32;20197;-64
2022/05/22 08:17:12;;;;;;;1.67;0.70;;;;;;;24.38;31.01;100367.31;18371373;32;20115;-65
2022/05/22 08:27:17;;;;;;;2.45;0.73;;;;;;;23.96;29.89;100367.94;18370866;32;20138;-64
2022/05/22 08:37:20;;;;;;;1.40;0.75;;;;;;;24.03;29.92;100352.44;18369754;32;20108;-64
2022/05/22 08:47:30;;;;;;;1.60;0.90;;;;;;;24.25;30.00;100353.84;18369409;32;20410;-65
2022/05/22 09:08:27;;;;;;;1.60;0.80;;;;;;;24.32;30.84;100338.34;18369947;32;20097;-65
2022/05/22 09:18:34;;;;;;;3.03;1.00;;;;;;;25.15;29.64;100334.09;18368581;32;20441;-64
2022/05/22 09:28:49;;;;;;;2.05;0.90;;;;;;;25.41;29.41;100316.34;18368508;32;20089;-64
2022/05/22 09:39:08;;;;;;;1.85;0.90;;;;;;;25.32;27.95;100308.94;18368419;32;20093;-64
2022/05/22 09:49:25;;;;;;;1.95;1.00;;;;;;;24.91;29.81;100314.22;18367837;32;20112;-64
2022/05/22 09:59:43;;;;;;;1.50;0.77;;;;;;;25.54;28.86;100299.53;18367180;32;20093;-65
2022/05/22 10:09:54;;;;;;;2.10;0.90;;;;;;;24.85;28.85;100279.91;18366560;32;20375;-64
2022/05/22 10:20:04;;;;;;;1.58;0.65;;;;;;;25.07;29.87;100292.72;18352286;32;20115;-65
2022/05/22 10:30:14;;;;;;;1.33;0.80;;;;;;;25.27;27.88;100271.84;18366154;32;20164;-64
2022/05/22 10:40:20;;;;;;;0.88;0.77;;;;;;;25.21;28.12;100253.56;18365455;32;20089;-65
2022/05/22 10:50:27;;;;;;;1.48;0.70;;;;;;;25.51;28.22;100263.19;18365956;32;20389;-64
2022/05/22 11:00:31;;;;;;;3.10;0.88;;;;;;;25.06;28.74;100268.78;18364078;32;20119;-65
2022/05/22 11:10:38;;;;;;;2.67;0.60;;;;;;;24.18;29.58;100265.34;18364720;32;20089;-64
2022/05/22 11:20:47;;;;;;;0.90;0.70;;;;;;;24.65;30.64;100259.78;18350133;32;20101;-64
2022/05/22 11:30:56;;;;;;;1.30;0.73;;;;;;;25.35;28.92;100250.84;18362104;32;20430;-65
2022/05/22 11:41:06;;;;;;;2.20;1.55;;;;;;;25.44;30.05;100240.50;18313035;32;20189;-65
2022/05/22 11:51:43;;;;;;;1.23;0.70;;;;;;;25.93;28.56;100232.75;18292987;32;20108;-65
2022/05/22 12:01:53;;;;;;;1.37;0.80;;;;;;;26.47;27.95;100220.13;17972618;33;20250;-64
2022/05/22 12:12:04;;;;;;;2.30;0.60;;;;;;;26.55;28.51;100193.63;17982859;32;20775;-65
2022/05/22 12:22:16;;;;;;;0.52;0.50;;;;;;;26.27;26.76;100187.59;17982583;33;20640;-64
2022/05/22 12:32:24;;;;;;;2.37;0.65;;;;;;;26.15;27.30;100182.13;18075720;32;20135;-64
2022/05/22 12:42:31;;;;;;;2.25;0.80;;;;;;;27.00;27.26;100172.47;18306365;32;20108;-65
2022/05/22 12:52:36;;;;;;;2.67;0.85;;;;;;;27.03;26.17;100166.03;18289596;32;82862;-65
2022/05/22 13:02:42;;;;;;;2.58;1.02;;;;;;;26.68;26.54;100162.31;18305103;32;20098;-65
2022/05/22 13:12:52;;;;;;;0.93;0.57;;;;;;;27.23;25.87;100153.81;18305533;32;20093;-65
2022/05/22 13:23:04;;;;;;;1.45;0.77;;;;;;;27.74;25.38;100140.12;18291057;32;20097;-65
2022/05/22 13:33:09;;;;;;;1.55;0.80;;;;;;;26.59;26.55;100137.06;18304577;32;20135;-65
2022/05/22 13:43:53;;;;;;;0.88;0.55;;;;;;;25.41;27.60;100133.81;18304451;32;20115;-64
2022/05/22 13:54:17;;;;;;;1.10;0.70;;;;;;;25.47;27.37;100117.38;17982433;32;20194;-65
2022/05/22 14:04:20;;;;;;;1.50;0.70;;;;;;;25.89;27.11;100106.47;17980874;32;20131;-64
2022/05/22 14:14:28;;;;;;;2.65;0.98;;;;;;;25.23;29.05;100115.44;17981817;33;20123;-65
2022/05/22 14:34:53;;;;;;;1.20;0.73;;;;;;;24.51;30.67;100106.78;18302371;32;20093;-64
2022/05/22 14:44:56;;;;;;;1.52;0.90;;;;;;;24.88;29.40;100094.66;18302089;32;20117;-64
2022/05/22 14:55:04;;;;;;;1.15;0.90;;;;;;;23.69;30.80;100096.81;18301157;32;20192;-64
2022/05/22 15:05:33;;;;;;;2.33;0.80;;;;;;;24.13;29.89;100088.81;18301368;32;20129;-64
2022/05/22 15:15:38;;;;;;;1.15;0.98;;;;;;;24.80;29.08;100074.66;18105750;32;20107;-64
2022/05/22 15:25:44;;;;;;;1.98;0.80;;;;;;;24.95;28.04;100069.28;18112362;32;20097;-64
2022/05/22 15:35:50;;;;;;;0.57;0.57;;;;;;;24.38;29.12;100077.41;18309310;32;20112;-64
2022/05/22 15:46:14;;;;;;;0.70;0.52;;;;;;;23.98;30.07;100078.13;18293796;32;20094;-64
2022/05/22 15:56:18;;;;;;;0.70;0.50;;;;;;;24.44;28.98;100061.97;18307383;32;20493;-64
2022/05/22 16:06:22;;;;;;;1.08;0.98;;;;;;;24.48;28.92;100068.78;18292917;32;20101;-64
2022/05/22 16:16:27;;;;;;;1.55;0.70;;;;;;;24.13;28.48;100058.59;18308142;32;20093;-64
2022/05/22 16:26:31;;;;;;;1.65;0.88;;;;;;;24.28;28.82;100054.94;18299712;32;20360;-64
2022/05/22 16:36:35;;;;;;;3.40;0.80;;;;;;;23.90;29.42;100059.12;18293076;32;20528;-64
2022/05/22 16:46:45;;;;;;;1.65;1.00;;;;;;;23.48;31.12;100072.38;18292094;32;20124;-64
2022/05/22 16:56:49;;;;;;;2.37;1.12;;;;;;;23.03;31.44;100071.53;18305442;32;20790;-64
2022/05/22 17:06:58;;;;;;;2.33;1.10;;;;;;;23.38;30.58;100069.41;18292424;32;20363;-64
2022/05/22 17:17:05;;;;;;;2.50;0.90;;;;;;;23.35;30.76;100066.94;18290566;32;20094;-64
2022/05/22 17:27:09;;;;;;;2.00;0.85;;;;;;;22.64;31.81;100073.78;18290641;32;20097;-64
2022/05/22 17:37:20;;;;;;;1.98;0.80;;;;;;;23.06;30.85;100080.19;18290380;32;20108;-64
2022/05/22 17:47:24;;;;;;;1.17;0.93;;;;;;;22.69;31.45;100071.72;18301210;32;20085;-64
2022/05/22 17:57:30;;;;;;;3.67;1.87;;;;;;;22.70;30.97;100076.09;18290518;32;20094;-64
2022/05/22 18:07:37;;;;;;;4.80;2.65;;;;;;;22.45;32.36;100074.81;18303218;32;20486;-65
2022/05/22 18:17:44;;;;;;;1.48;1.10;;;;;;;21.70;35.46;100080.72;18352810;32;20097;-66
2022/05/22 18:27:50;;;;;;;1.62;0.85;;;;;;;21.54;34.62;100085.97;18317536;32;20458;-64
2022/05/22 18:37:57;;;;;;;1.83;0.90;;;;;;;21.44;32.63;100090.91;18284050;32;20101;-64
2022/05/22 18:48:01;;;;;;;1.40;0.85;;;;;;;21.41;32.30;100080.44;18286042;32;20124;-64
2022/05/22 18:58:05;;;;;;;2.55;1.00;;;;;;;21.16;32.86;100098.53;18303269;32;20085;-64
2022/05/22 19:08:12;;;;;;;0.70;0.70;;;;;;;21.11;34.06;100105.00;18290526;32;20101;-64
2022/05/22 19:18:16;;;;;;;1.95;1.10;;;;;;;20.80;34.24;100108.22;18292437;32;20090;-64
2022/05/22 19:28:23;;;;;;;1.15;0.82;;;;;;;20.77;34.24;100120.75;18304927;32;20496;-65
2022/05/22 19:38:28;;;;;;;1.98;1.00;;;;;;;20.31;35.14;100131.81;18282501;32;20163;-66
2022/05/22 19:48:31;;;;;;;2.72;1.00;;;;;;;19.61;37.40;100140.22;18276745;32;20120;-67
2022/05/22 19:58:38;;;;;;;1.58;1.00;;;;;;;19.22;40.65;100150.69;18303117;32;20129;-66
2022/05/22 20:08:45;;;;;;;3.20;1.30;;;;;;;18.35;42.86;100162.06;18301099;32;20101;-64
2022/05/22 20:18:50;;;;;;;1.67;1.12;;;;;;;17.46;44.69;100167.03;18299130;32;20155;-64
2022/05/22 20:28:54;;;;;;;3.37;1.25;;;;;;;16.82;47.89;100165.59;18305969;32;20128;-63
2022/05/22 20:38:59;;;;;;;5.90;1.62;;;;;;;16.02;50.40;100174.97;18300249;32;20108;-64
2022/05/22 20:49:02;;;;;;;5.32;1.80;;;;;;;15.26;52.45;100180.47;18301366;32;20127;-63
2022/05/22 20:59:09;;;;;;;3.67;1.80;;;;;;;15.01;53.45;100178.44;18275588;32;20101;-63
2022/05/22 21:09:14;;;;;;;5.00;1.62;;;;;;;15.40;53.05;100172.22;18226414;32;20112;-63
2022/05/22 21:19:19;;;;;;;3.55;1.40;;;;;;;15.28;53.74;100173.41;18226807;32;20098;-63
2022/05/22 21:29:22;;;;;;;1.95;1.30;;;;;;;14.75;55.72;100173.78;18241864;32;20120;-63
2022/05/22 21:39:26;;;;;;;3.08;1.30;;;;;;;15.56;53.06;100163.94;18240656;32;20348;-64
2022/05/22 21:49:30;;;;;;;3.90;1.50;;;;;;;15.84;51.81;100166.69;18227168;32;20094;-64
2022/05/22 21:59:35;;;;;;;7.55;1.62;;;;;;;16.35;50.25;100174.91;18273039;32;20119;-64
2022/05/22 22:09:39;;;;;;;3.10;1.60;;;;;;;16.43;51.55;100179.94;18367401;32;20343;-64
2022/05/22 22:19:43;;;;;;;2.30;1.20;;;;;;;16.58;49.98;100170.72;18366939;32;20129;-64
2022/05/22 22:29:46;;;;;;;1.80;1.40;;;;;;;15.35;53.68;100187.25;18365708;32;20458;-64
2022/05/22 22:39:51;;;;;;;3.97;1.52;;;;;;;15.00;55.02;100184.62;18367129;32;20123;-64
2022/05/22 22:49:56;;;;;;;2.17;1.52;;;;;;;14.54;55.59;100181.22;18352096;32;20119;-63
2022/05/22 23:00:05;;;;;;;3.70;1.92;;;;;;;14.64;55.40;100198.50;18365612;32;20109;-63
2022/05/22 23:10:10;;;;;;;3.37;1.30;;;;;;;13.84;58.09;100201.03;18364039;32;20082;-63
2022/05/22 23:20:16;;;;;;;3.20;1.80;;;;;;;13.85;58.53;100218.53;18363415;32;20097;-64
2022/05/22 23:30:20;;;;;;;3.25;1.80;;;;;;;13.29;61.22;100224.72;18364042;32;20100;-63
2022/05/22 23:40:29;;;;;;;2.70;1.45;;;;;;;12.75;62.23;100232.47;18370333;32;20105;-63
2022/05/22 23:50:34;;;;;;;2.80;1.77;;;;;;;12.83;62.42;100221.91;18371519;32;20108;-63
